Time;durP1;ratioP1;P1;durP2;ratioP2;P2;SDS_P1;SDS_P2;PMS_P1;PMS_P2;Temp;Humidity;BMP_temperature;BMP_pressure;BME280_temperature;BME280_humidity;BME280_pressure;Samples;Min_cycle;Max_cycle;Signal;HPM_P1;HPM_P2
2023/03/04 00:02:21;;;;;;;14.80;4.38;;;;;;;6.08;100.00;102742.34;10415791;28;20033;-72
2023/03/04 00:07:21;;;;;;;7.78;3.40;;;;;;;6.13;100.00;102756.28;10415699;28;20049;-72
2023/03/04 00:12:22;;;;;;;13.43;3.50;;;;;;;6.12;100.00;102749.16;10415392;28;20144;-72
2023/03/04 00:17:23;;;;;;;6.22;2.17;;;;;;;6.17;100.00;102751.50;10416163;28;20485;-71
2023/03/04 00:22:23;;;;;;;5.38;2.55;;;;;;;6.20;100.00;102749.44;10415259;28;20465;-72
2023/03/04 00:27:23;;;;;;;8.70;2.45;;;;;;;6.20;100.00;102751.25;10415348;28;20485;-72
2023/03/04 00:32:24;;;;;;;8.52;3.03;;;;;;;6.16;100.00;102745.28;10415857;28;20033;-72
2023/03/04 00:37:25;;;;;;;9.48;2.72;;;;;;;6.10;100.00;102751.16;10421059;28;20036;-71
2023/03/04 00:42:25;;;;;;;8.93;3.10;;;;;;;6.10;100.00;102742.22;10423915;28;20519;-72
2023/03/04 00:47:25;;;;;;;6.20;3.08;;;;;;;6.14;100.00;102746.38;10423148;28;20091;-72
2023/03/04 00:52:26;;;;;;;8.80;3.38;;;;;;;6.18;100.00;102737.91;10421811;28;20040;-71
2023/03/04 00:57:27;;;;;;;6.55;2.22;;;;;;;6.21;100.00;102735.00;10421014;28;20116;-71
2023/03/04 01:02:27;;;;;;;11.82;3.10;;;;;;;6.19;100.00;102744.16;10422439;28;20025;-72
2023/03/04 01:07:28;;;;;;;5.63;2.58;;;;;;;6.21;100.00;102736.81;10420399;28;20116;-72
2023/03/04 01:12:28;;;;;;;8.80;3.00;;;;;;;6.21;100.00;102747.59;10422109;28;20079;-72
2023/03/04 01:17:29;;;;;;;16.15;3.65;;;;;;;6.19;100.00;102742.34;10422021;28;20045;-72
2023/03/04 01:22:29;;;;;;;12.57;3.38;;;;;;;6.22;100.00;102735.84;10387661;28;20042;-72
2023/03/04 01:27:30;;;;;;;12.18;3.55;;;;;;;6.20;100.00;102730.59;10388643;28;20053;-72
2023/03/04 01:32:30;;;;;;;12.23;3.30;;;;;;;6.19;100.00;102736.09;10419931;28;20033;-72
2023/03/04 01:37:31;;;;;;;2.40;1.65;;;;;;;6.15;100.00;102723.88;10422173;28;20137;-72
2023/03/04 01:42:32;;;;;;;6.95;3.17;;;;;;;6.15;100.00;102716.66;10421425;28;20056;-72
2023/03/04 01:47:33;;;;;;;10.23;2.80;;;;;;;6.08;100.00;102710.06;10419749;28;20034;-72
2023/03/04 01:52:33;;;;;;;3.83;2.28;;;;;;;6.11;100.00;102709.81;10420747;28;20532;-72
2023/03/04 01:57:34;;;;;;;7.03;3.20;;;;;;;6.09;100.00;102702.84;10419920;28;20469;-72
2023/03/04 02:02:34;;;;;;;4.57;2.10;;;;;;;6.09;100.00;102695.63;10420621;28;20426;-72
2023/03/04 02:07:35;;;;;;;12.27;3.47;;;;;;;6.10;100.00;102681.22;10404745;28;20128;-72
2023/03/04 02:12:35;;;;;;;10.15;2.97;;;;;;;6.14;100.00;102677.28;10418465;28;20045;-72
2023/03/04 02:17:36;;;;;;;3.47;2.75;;;;;;;6.13;100.00;102672.06;10419598;28;20030;-72
2023/03/04 02:22:38;;;;;;;12.77;3.17;;;;;;;6.10;100.00;102675.00;10419428;28;20046;-72
2023/03/04 02:27:39;;;;;;;6.80;2.15;;;;;;;6.09;100.00;102671.41;10419840;28;20416;-71
2023/03/04 02:32:39;;;;;;;14.82;3.83;;;;;;;6.09;100.00;102663.34;10417958;28;20069;-72
2023/03/04 02:37:40;;;;;;;6.85;2.95;;;;;;;6.07;100.00;102659.94;10418233;28;20033;-72
2023/03/04 02:42:43;;;;;;;7.80;3.03;;;;;;;6.07;100.00;102654.56;10417443;28;20082;-72
2023/03/04 02:47:43;;;;;;;15.55;3.85;;;;;;;6.08;100.00;102650.03;10418431;28;20026;-71
2023/03/04 02:52:44;;;;;;;6.57;2.38;;;;;;;6.07;100.00;102642.97;10417096;28;20084;-72
2023/03/04 02:57:44;;;;;;;18.25;3.55;;;;;;;6.01;100.00;102650.53;10416739;28;20044;-72
2023/03/04 03:02:45;;;;;;;10.25;3.38;;;;;;;6.01;100.00;102649.69;10417216;28;20111;-71
2023/03/04 03:07:45;;;;;;;16.48;3.78;;;;;;;5.96;100.00;102641.13;10417638;28;20072;-72
2023/03/04 03:12:46;;;;;;;12.70;2.35;;;;;;;5.87;99.94;102649.91;10417778;28;20104;-72
2023/03/04 03:17:46;;;;;;;8.98;3.20;;;;;;;5.89;99.85;102645.25;10415597;28;20531;-72
2023/03/04 03:22:47;;;;;;;9.98;3.55;;;;;;;5.86;99.54;102643.69;10416906;28;20469;-72
2023/03/04 03:27:47;;;;;;;6.82;2.70;;;;;;;5.86;99.82;102643.69;10416858;28;20539;-72
2023/03/04 03:32:48;;;;;;;18.75;2.55;;;;;;;5.86;99.76;102642.81;10416753;28;20033;-71
2023/03/04 03:37:48;;;;;;;9.07;2.97;;;;;;;5.88;99.72;102643.56;10414585;28;20044;-71
2023/03/04 03:42:49;;;;;;;16.15;2.55;;;;;;;5.83;99.84;102636.72;10415611;28;20116;-72
2023/03/04 03:47:49;;;;;;;7.45;2.05;;;;;;;5.86;99.73;102638.28;10415732;28;20043;-72
2023/03/04 03:52:50;;;;;;;9.93;2.88;;;;;;;5.86;100.00;102640.13;10415818;28;20038;-72
2023/03/04 03:57:50;;;;;;;5.28;2.30;;;;;;;5.86;100.00;102640.13;10398531;28;20120;-72
2023/03/04 04:02:52;;;;;;;6.35;2.85;;;;;;;5.88;100.00;102641.72;10415886;28;20044;-72
2023/03/04 04:07:53;;;;;;;8.55;3.05;;;;;;;5.90;100.00;102639.75;10397998;28;20354;-72
2023/03/04 04:12:53;;;;;;;12.50;2.90;;;;;;;5.91;100.00;102641.47;10397896;28;20046;-72
2023/03/04 04:17:55;;;;;;;4.90;2.55;;;;;;;5.91;100.00;102635.25;10418202;28;20404;-72
2023/03/04 04:22:55;;;;;;;7.18;2.15;;;;;;;5.89;100.00;102637.19;10414910;28;20038;-71
2023/03/04 04:27:56;;;;;;;15.65;2.75;;;;;;;5.87;100.00;102639.16;10414623;28;20249;-72
2023/03/04 04:33:00;;;;;;;8.88;2.53;;;;;;;5.87;100.00;102647.22;10415262;28;20052;-72
2023/03/04 04:38:00;;;;;;;6.15;2.70;;;;;;;5.76;100.00;102638.19;10414013;28;20033;-72
2023/03/04 04:43:01;;;;;;;7.57;2.50;;;;;;;5.80;100.00;102653.09;10413828;28;20091;-71
2023/03/04 04:48:01;;;;;;;14.88;2.75;;;;;;;5.81;100.00;102643.22;10414626;28;20113;-72
2023/03/04 04:53:02;;;;;;;3.63;1.65;;;;;;;5.84;100.00;102648.34;10414378;28;20049;-72
2023/03/04 04:58:05;;;;;;;10.02;3.03;;;;;;;5.85;100.00;102641.13;10414264;28;20037;-72
2023/03/04 05:03:05;;;;;;;15.85;2.97;;;;;;;5.85;100.00;102650.03;10413497;28;20443;-72
2023/03/04 05:08:06;;;;;;;8.80;4.35;;;;;;;5.84;100.00;102653.72;10415160;28;20103;-72
2023/03/04 05:13:06;;;;;;;12.02;3.17;;;;;;;5.86;100.00;102648.19;10414072;28;20484;-72
2023/03/04 05:18:07;;;;;;;3.95;1.52;;;;;;;5.85;100.00;102652.72;10414510;28;20485;-72
2023/03/04 05:23:07;;;;;;;5.07;2.22;;;;;;;5.83;100.00;102646.59;10417767;28;20464;-71
2023/03/04 05:28:11;;;;;;;17.52;2.42;;;;;;;5.81;100.00;102652.13;10421604;28;20122;-71
2023/03/04 05:33:12;;;;;;;2.90;2.05;;;;;;;5.82;100.00;102656.50;10421418;28;20041;-72
2023/03/04 05:38:14;;;;;;;9.60;2.05;;;;;;;5.77;100.00;102647.94;10421762;28;20033;-72
2023/03/04 05:43:15;;;;;;;4.03;1.73;;;;;;;5.81;100.00;102638.69;10403453;28;20397;-72
2023/03/04 05:48:15;;;;;;;4.65;2.33;;;;;;;5.83;100.00;102636.72;10403193;28;20030;-72
2023/03/04 05:53:16;;;;;;;2.45;1.83;;;;;;;5.89;100.00;102639.88;10419448;28;20517;-72
2023/03/04 05:58:16;;;;;;;5.22;2.35;;;;;;;5.88;100.00;102641.72;10420996;28;20446;-72
2023/03/04 06:03:18;;;;;;;17.95;2.65;;;;;;;5.94;100.00;102632.34;10419296;28;20400;-72
2023/03/04 06:08:19;;;;;;;10.65;2.72;;;;;;;6.00;100.00;102632.72;10418139;28;20052;-72
2023/03/04 06:13:19;;;;;;;5.72;2.40;;;;;;;5.88;100.00;102639.03;10419792;28;20073;-72
2023/03/04 06:18:20;;;;;;;6.57;3.58;;;;;;;5.76;100.00;102635.50;10418432;28;20048;-72
2023/03/04 06:23:21;;;;;;;4.55;1.98;;;;;;;5.68;100.00;102637.97;10417857;28;20381;-72
2023/03/04 06:28:21;;;;;;;7.95;2.35;;;;;;;5.66;100.00;102649.81;10418705;28;20033;-71
2023/03/04 06:33:22;;;;;;;11.70;2.58;;;;;;;5.69;100.00;102642.34;10434340;28;20037;-72
2023/03/04 06:38:23;;;;;;;4.28;2.80;;;;;;;5.71;100.00;102650.28;10401249;28;20037;-72
2023/03/04 06:43:24;;;;;;;3.40;2.17;;;;;;;5.69;100.00;102657.63;10418559;28;20034;-71
2023/03/04 06:48:24;;;;;;;9.32;3.47;;;;;;;5.68;100.00;102653.22;10418832;28;20073;-72
2023/03/04 06:53:25;;;;;;;1.70;1.60;;;;;;;5.74;100.00;102664.34;10418240;28;20455;-72
2023/03/04 06:58:25;;;;;;;7.25;2.13;;;;;;;5.82;100.00;102664.56;10419064;28;20120;-72
2023/03/04 07:03:26;;;;;;;18.83;2.95;;;;;;;5.90;100.00;102660.41;10417825;28;20072;-72
2023/03/04 07:08:26;;;;;;;5.70;2.20;;;;;;;6.02;100.00;102668.38;10416473;28;20033;-72
2023/03/04 07:13:27;;;;;;;3.67;2.05;;;;;;;6.12;100.00;102667.63;10416656;28;20118;-72
2023/03/04 07:18:27;;;;;;;12.95;2.50;;;;;;;6.23;100.00;102667.63;10399491;28;20067;-72
2023/03/04 07:23:28;;;;;;;10.05;2.40;;;;;;;6.24;100.00;102680.94;10416700;28;20061;-72
2023/03/04 07:28:28;;;;;;;3.08;1.98;;;;;;;6.34;100.00;102669.41;10416803;28;20396;-72
2023/03/04 07:33:29;;;;;;;8.20;2.92;;;;;;;6.59;100.00;102676.31;10416890;28;20037;-72
2023/03/04 07:38:29;;;;;;;2.95;1.33;;;;;;;7.52;100.00;102679.13;10414770;28;20037;-72
2023/03/04 07:43:29;;;;;;;5.38;1.00;;;;;;;8.71;100.00;102688.28;10415148;28;20029;-72
2023/03/04 07:48:30;;;;;;;4.15;1.80;;;;;;;8.42;100.00;102697.19;10399220;28;20142;-72
2023/03/04 07:53:31;;;;;;;2.00;1.38;;;;;;;7.73;100.00;102705.19;10414257;28;20527;-72
2023/03/04 07:58:32;;;;;;;0.88;0.88;;;;;;;7.54;100.00;102714.88;10414292;28;20041;-72
2023/03/04 08:03:32;;;;;;;0.73;0.73;;;;;;;7.68;100.00;102711.84;10397768;28;20033;-72
2023/03/04 08:08:33;;;;;;;7.25;1.52;;;;;;;7.90;100.00;102708.09;10399604;28;20037;-70
2023/03/04 08:13:33;;;;;;;4.72;1.00;;;;;;;8.03;100.00;102690.84;10381930;28;20104;-71
2023/03/04 08:18:34;;;;;;;9.55;1.60;;;;;;;8.50;100.00;102699.22;10415638;28;20041;-71
2023/03/04 08:23:34;;;;;;;0.93;0.93;;;;;;;9.87;100.00;102693.50;10416055;28;20038;-71
2023/03/04 08:28:35;;;;;;;9.57;1.30;;;;;;;9.38;100.00;102700.91;10415432;28;20037;-72
2023/03/04 08:33:35;;;;;;;1.15;0.90;;;;;;;8.93;100.00;102704.22;10397776;28;20071;-72
2023/03/04 08:38:36;;;;;;;5.30;1.40;;;;;;;8.65;100.00;102715.84;10415239;28;20473;-72
2023/03/04 08:43:36;;;;;;;1.02;1.02;;;;;;;8.05;100.00;102711.28;10413885;28;20214;-72
2023/03/04 08:48:37;;;;;;;3.47;1.42;;;;;;;7.90;100.00;102712.66;10397686;28;20473;-72
2023/03/04 08:53:38;;;;;;;2.17;1.98;;;;;;;8.11;100.00;102701.81;10414313;28;20032;-73
2023/03/04 08:58:38;;;;;;;1.17;1.02;;;;;;;8.50;100.00;102697.38;10421532;28;20033;-72
2023/03/04 09:03:39;;;;;;;1.95;1.65;;;;;;;10.61;100.00;102684.41;10423395;28;20068;-73
2023/03/04 09:08:39;;;;;;;4.22;1.35;;;;;;;11.59;100.00;102687.06;10420919;28;20040;-73
2023/03/04 09:13:40;;;;;;;6.95;1.13;;;;;;;10.77;100.00;102682.84;10421484;28;20103;-73
2023/03/04 09:18:40;;;;;;;3.13;1.08;;;;;;;9.81;100.00;102685.13;10420192;28;20044;-73
2023/03/04 09:23:41;;;;;;;1.17;1.05;;;;;;;8.80;100.00;102699.09;10421220;28;20025;-72
2023/03/04 09:28:41;;;;;;;2.08;1.20;;;;;;;8.19;100.00;102693.84;10420974;28;20030;-72
2023/03/04 09:33:42;;;;;;;1.55;1.45;;;;;;;8.36;100.00;102692.34;10420186;28;20052;-72
2023/03/04 09:38:42;;;;;;;3.13;1.13;;;;;;;9.74;100.00;102690.28;10403413;28;20057;-72
2023/03/04 09:43:43;;;;;;;1.45;1.13;;;;;;;10.75;100.00;102684.84;10403917;28;20124;-73
2023/03/04 09:48:49;;;;;;;1.73;1.00;;;;;;;11.55;100.00;102682.94;10403219;28;20116;-73
2023/03/04 09:54:07;;;;;;;4.88;1.52;;;;;;;11.03;100.00;102675.63;10403972;28;20468;-72
2023/03/04 09:59:23;;;;;;;2.75;1.40;;;;;;;9.90;100.00;102679.66;10403635;28;20060;-73
2023/03/04 10:04:39;;;;;;;9.48;2.05;;;;;;;9.75;100.00;102678.44;10420208;28;20039;-72
2023/03/04 10:09:45;;;;;;;2.95;2.03;;;;;;;10.08;100.00;102676.16;10402629;28;20040;-73
2023/03/04 10:14:56;;;;;;;8.95;1.27;;;;;;;10.42;100.00;102682.66;10418814;28;20084;-73
2023/03/04 10:19:58;;;;;;;1.55;1.10;;;;;;;9.62;100.00;102694.16;10420006;28;20452;-72
2023/03/04 10:25:07;;;;;;;1.10;1.00;;;;;;;8.90;100.00;102691.00;10401852;28;20076;-70
2023/03/04 10:30:44;;;;;;;7.22;1.50;;;;;;;8.17;100.00;102687.75;10403149;28;20388;-70
2023/03/04 10:35:49;;;;;;;0.75;0.75;;;;;;;8.53;100.00;102683.59;10418046;28;20385;-70
2023/03/04 10:40:50;;;;;;;1.45;1.35;;;;;;;8.88;100.00;102690.28;10402382;28;20125;-70
2023/03/04 10:45:56;;;;;;;4.03;2.08;;;;;;;10.79;100.00;102672.72;10418437;28;20129;-71
2023/03/04 10:51:23;;;;;;;5.38;2.03;;;;;;;11.05;100.00;102664.63;10419622;28;20022;-71
2023/03/04 10:56:38;;;;;;;3.42;1.63;;;;;;;10.24;100.00;102668.22;10419117;28;20507;-72
2023/03/04 11:01:39;;;;;;;1.10;1.02;;;;;;;10.62;100.00;102666.28;10417041;28;20036;-72
2023/03/04 11:06:39;;;;;;;7.20;3.03;;;;;;;12.04;100.00;102661.50;10400598;28;20092;-73
2023/03/04 11:11:46;;;;;;;5.68;1.88;;;;;;;11.82;100.00;102654.75;10417889;28;20450;-78
2023/03/04 11:16:57;;;;;;;11.48;1.73;;;;;;;10.68;100.00;102646.69;10416797;28;20150;-70
2023/03/04 11:21:58;;;;;;;1.05;1.05;;;;;;;10.25;100.00;102657.25;10417243;28;20061;-70
2023/03/04 11:27:16;;;;;;;5.00;1.33;;;;;;;11.15;100.00;102652.69;10399669;28;20061;-71
2023/03/04 11:32:19;;;;;;;4.47;0.98;;;;;;;12.04;100.00;102642.50;10400483;28;20101;-71
2023/03/04 11:37:46;;;;;;;4.90;2.22;;;;;;;11.60;100.00;102643.47;10415313;28;20025;-71
2023/03/04 11:42:56;;;;;;;1.23;1.13;;;;;;;12.29;100.00;102625.25;10416689;28;20043;-71
2023/03/04 11:48:14;;;;;;;1.92;1.27;;;;;;;13.34;100.00;102624.59;10398786;28;20036;-73
2023/03/04 11:54:09;;;;;;;5.68;1.40;;;;;;;12.24;100.00;102624.91;10399305;28;20094;-73
2023/03/04 11:59:20;;;;;;;1.25;1.13;;;;;;;11.57;100.00;102618.50;10370819;28;20068;-73
2023/03/04 12:04:32;;;;;;;7.50;2.17;;;;;;;11.02;100.00;102617.00;10415921;28;20034;-73
2023/03/04 12:09:45;;;;;;;5.57;2.10;;;;;;;10.86;100.00;102611.47;10414879;28;20535;-73
2023/03/04 12:14:50;;;;;;;1.63;1.20;;;;;;;10.25;100.00;102613.06;10415187;28;20060;-72
2023/03/04 12:20:09;;;;;;;1.50;1.33;;;;;;;9.69;100.00;102611.41;10415006;28;20061;-72
2023/03/04 12:25:40;;;;;;;2.05;0.77;;;;;;;9.31;100.00;102610.56;10414729;28;20029;-71
2023/03/04 12:31:00;;;;;;;1.30;1.20;;;;;;;9.04;100.00;102598.69;10419493;28;20037;-70
2023/03/04 12:36:45;;;;;;;0.70;0.70;;;;;;;9.19;100.00;102596.38;10423683;28;20041;-70
2023/03/04 12:41:49;;;;;;;1.10;1.00;;;;;;;9.89;100.00;102585.97;10424562;28;20040;-70
2023/03/04 12:47:05;;;;;;;1.00;0.95;;;;;;;10.55;100.00;102586.63;10422802;28;20543;-71
2023/03/04 12:52:12;;;;;;;4.07;1.38;;;;;;;9.45;100.00;102582.22;10423195;28;20107;-71
2023/03/04 12:57:22;;;;;;;2.67;1.55;;;;;;;10.09;100.00;102583.97;10421131;28;20030;-71
2023/03/04 13:02:37;;;;;;;4.82;1.63;;;;;;;10.34;100.00;102577.00;10406555;28;20037;-70
2023/03/04 13:07:42;;;;;;;5.05;2.47;;;;;;;9.69;100.00;102577.09;10423856;28;20112;-71
2023/03/04 13:12:46;;;;;;;3.70;2.00;;;;;;;9.58;100.00;102562.94;10423000;28;20057;-72
2023/03/04 13:17:50;;;;;;;3.70;2.45;;;;;;;10.61;100.00;102559.78;10422112;28;20026;-73
2023/03/04 13:23:00;;;;;;;16.70;2.92;;;;;;;10.80;100.00;102555.19;10420934;28;20026;-70
2023/03/04 13:28:14;;;;;;;7.82;2.63;;;;;;;10.66;100.00;102543.06;10420376;28;20021;-71
2023/03/04 13:33:14;;;;;;;1.15;1.15;;;;;;;11.36;100.00;102538.41;10421271;28;20044;-71
2023/03/04 13:38:33;;;;;;;3.47;2.03;;;;;;;10.89;100.00;102541.53;10420463;28;20037;-71
2023/03/04 13:43:53;;;;;;;7.18;2.65;;;;;;;10.05;100.00;102542.00;10420671;28;20286;-71
2023/03/04 13:48:53;;;;;;;9.07;2.22;;;;;;;9.50;100.00;102542.88;10420573;28;20540;-70
2023/03/04 13:53:59;;;;;;;1.92;1.73;;;;;;;9.27;100.00;102542.41;10419786;28;20124;-71
2023/03/04 13:59:13;;;;;;;7.87;3.23;;;;;;;10.02;100.00;102536.88;10419664;28;20041;-71
2023/03/04 14:04:18;;;;;;;4.70;2.72;;;;;;;10.96;100.00;102525.47;10419008;28;20103;-74
2023/03/04 14:09:24;;;;;;;10.15;3.72;;;;;;;11.09;100.00;102528.59;10385900;28;20099;-71
2023/03/04 14:14:29;;;;;;;7.18;2.78;;;;;;;11.16;100.00;102517.94;10418924;28;20448;-71
2023/03/04 14:19:51;;;;;;;11.75;2.85;;;;;;;11.38;100.00;102519.25;10419338;28;20082;-72
2023/03/04 14:24:59;;;;;;;5.95;2.78;;;;;;;11.24;100.00;102504.44;10418923;28;20044;-72
2023/03/04 14:30:00;;;;;;;6.75;3.08;;;;;;;11.02;100.00;102505.00;10419296;28;20404;-71
2023/03/04 14:35:06;;;;;;;2.47;2.28;;;;;;;10.34;100.00;102508.41;10418993;28;20120;-70
2023/03/04 14:40:07;;;;;;;6.70;2.00;;;;;;;9.91;100.00;102505.47;10418741;28;20373;-71
2023/03/04 14:45:11;;;;;;;6.80;2.65;;;;;;;9.40;100.00;102512.34;10417401;28;20069;-70
2023/03/04 14:50:18;;;;;;;14.32;2.65;;;;;;;9.15;100.00;102504.91;10416954;28;20097;-70
2023/03/04 14:55:21;;;;;;;8.88;2.58;;;;;;;9.12;100.00;102492.53;10418629;28;20044;-70
2023/03/04 15:00:30;;;;;;;7.95;2.67;;;;;;;9.00;100.00;102494.59;10419032;28;20434;-70
2023/03/04 15:05:32;;;;;;;9.43;2.55;;;;;;;8.82;100.00;102494.50;10416534;28;20033;-70
2023/03/04 15:10:33;;;;;;;3.67;2.90;;;;;;;8.75;100.00;102479.91;10415723;28;20493;-73
2023/03/04 15:15:39;;;;;;;5.45;3.50;;;;;;;8.87;100.00;102490.50;10383470;28;20057;-72
2023/03/04 15:20:40;;;;;;;11.00;4.18;;;;;;;8.74;100.00;102485.44;10418919;28;20028;-70
2023/03/04 15:25:41;;;;;;;13.35;3.60;;;;;;;8.66;100.00;102485.34;10417473;28;20366;-70
2023/03/04 15:30:42;;;;;;;11.20;4.00;;;;;;;8.51;100.00;102488.47;10415451;28;20449;-72
2023/03/04 15:35:55;;;;;;;19.80;2.97;;;;;;;8.14;100.00;102486.50;10415267;28;20031;-72
2023/03/04 15:40:57;;;;;;;13.60;2.97;;;;;;;7.75;100.00;102488.31;10416383;28;20461;-72
2023/03/04 15:45:57;;;;;;;7.20;3.13;;;;;;;7.73;100.00;102476.00;10416767;28;20345;-71
2023/03/04 15:51:01;;;;;;;12.18;2.63;;;;;;;7.89;100.00;102474.44;10415594;28;20039;-72
2023/03/04 15:56:02;;;;;;;10.20;3.95;;;;;;;8.00;100.00;102461.78;10414833;28;20025;-71
2023/03/04 16:01:03;;;;;;;10.13;2.33;;;;;;;8.04;100.00;102466.78;10415455;28;20033;-71
2023/03/04 16:06:04;;;;;;;9.40;2.65;;;;;;;7.81;100.00;102457.25;10414076;28;20037;-71
2023/03/04 16:11:05;;;;;;;7.35;1.75;;;;;;;7.98;100.00;102453.00;10413419;28;20539;-71
2023/03/04 16:16:09;;;;;;;5.95;2.75;;;;;;;8.00;100.00;102442.91;10398389;28;20087;-71
2023/03/04 16:21:17;;;;;;;14.02;2.42;;;;;;;7.84;100.00;102451.56;10414264;28;20033;-71
2023/03/04 16:26:19;;;;;;;9.18;3.05;;;;;;;7.75;100.00;102447.88;10398875;28;20171;-71
2023/03/04 16:31:19;;;;;;;16.00;2.78;;;;;;;7.58;100.00;102444.03;10397370;28;20392;-71
2023/03/04 16:36:22;;;;;;;2.63;1.77;;;;;;;7.28;100.00;102454.91;10397751;28;20044;-71
2023/03/04 16:41:25;;;;;;;4.80;2.10;;;;;;;6.99;100.00;102455.66;10415138;28;20033;-71
2023/03/04 16:46:25;;;;;;;8.65;2.60;;;;;;;6.73;100.00;102458.81;10415066;28;20025;-71
2023/03/04 16:51:26;;;;;;;9.02;2.28;;;;;;;6.62;100.00;102458.03;10415550;28;20034;-71
2023/03/04 16:56:26;;;;;;;5.78;2.00;;;;;;;6.48;100.00;102459.25;10430071;28;20199;-71
2023/03/04 17:01:27;;;;;;;8.35;2.33;;;;;;;6.23;100.00;102455.09;10413973;28;20508;-71
2023/03/04 17:06:28;;;;;;;1.88;1.50;;;;;;;6.13;100.00;102462.25;10414539;28;20037;-71
2023/03/04 17:11:28;;;;;;;9.18;3.78;;;;;;;6.11;100.00;102461.53;10412901;28;20072;-71
2023/03/04 17:16:29;;;;;;;4.97;1.90;;;;;;;6.03;100.00;102462.16;10415301;28;20061;-71
2023/03/04 17:21:29;;;;;;;6.90;2.10;;;;;;;5.92;100.00;102462.19;10389381;28;20073;-71
2023/03/04 17:26:30;;;;;;;4.25;2.70;;;;;;;5.88;100.00;102466.97;10420423;28;20037;-71
2023/03/04 17:31:30;;;;;;;3.60;1.70;;;;;;;5.91;100.00;102471.25;10421557;28;20037;-71
2023/03/04 17:36:31;;;;;;;9.18;3.00;;;;;;;5.94;100.00;102471.03;10422166;28;20034;-71
2023/03/04 17:41:31;;;;;;;4.35;1.83;;;;;;;5.96;100.00;102477.09;10420863;28;20445;-71
2023/03/04 17:46:32;;;;;;;1.75;1.42;;;;;;;5.92;100.00;102484.53;10403975;28;20033;-71
2023/03/04 17:51:34;;;;;;;0.88;0.88;;;;;;;5.69;100.00;102489.16;10420946;28;20048;-71
2023/03/04 17:56:36;;;;;;;2.10;1.75;;;;;;;5.57;100.00;102495.53;10422398;28;20025;-71
2023/03/04 18:01:36;;;;;;;6.47;1.40;;;;;;;5.69;100.00;102502.59;10419333;28;20036;-71
2023/03/04 18:06:37;;;;;;;5.78;1.85;;;;;;;5.73;100.00;102503.19;10418812;28;20073;-70
2023/03/04 18:11:37;;;;;;;1.90;1.80;;;;;;;5.58;100.00;102503.47;10418531;28;20099;-70
2023/03/04 18:16:38;;;;;;;8.48;2.53;;;;;;;5.51;100.00;102501.41;10419460;28;20037;-70
2023/03/04 18:21:39;;;;;;;5.38;3.72;;;;;;;5.42;100.00;102496.78;10419809;28;20380;-70
2023/03/04 18:26:39;;;;;;;7.35;2.92;;;;;;;5.42;100.00;102491.41;10401330;28;20049;-70
2023/03/04 18:31:40;;;;;;;7.18;2.25;;;;;;;5.43;100.00;102491.28;10401590;28;20091;-71
2023/03/04 18:36:40;;;;;;;9.20;2.88;;;;;;;5.36;100.00;102493.63;10417407;28;20104;-70
2023/03/04 18:41:40;;;;;;;6.10;2.35;;;;;;;5.43;100.00;102480.53;10418835;28;20037;-70
2023/03/04 18:46:46;;;;;;;12.07;3.28;;;;;;;5.53;100.00;102478.81;10417395;28;20080;-70
2023/03/04 18:51:46;;;;;;;3.92;2.50;;;;;;;5.54;100.00;102464.38;10417337;28;20032;-71
2023/03/04 18:56:49;;;;;;;2.70;1.98;;;;;;;5.67;100.00;102466.06;10417767;28;20033;-71
2023/03/04 19:01:50;;;;;;;7.32;2.85;;;;;;;5.73;100.00;102460.19;10400354;28;20354;-71
2023/03/04 19:06:50;;;;;;;9.05;2.47;;;;;;;5.79;100.00;102457.84;10416684;28;20116;-71
2023/03/04 19:11:51;;;;;;;4.03;2.72;;;;;;;5.84;100.00;102462.84;10418023;28;20053;-71
2023/03/04 19:16:52;;;;;;;5.38;1.83;;;;;;;5.84;100.00;102457.47;10418647;28;20041;-70
2023/03/04 19:21:52;;;;;;;9.82;3.28;;;;;;;5.88;100.00;102450.00;10417173;28;20049;-71
2023/03/04 19:26:52;;;;;;;9.50;3.38;;;;;;;5.88;100.00;102460.75;10416510;28;20457;-70
2023/03/04 19:31:53;;;;;;;10.38;2.58;;;;;;;5.80;100.00;102451.47;10400425;28;20032;-71
2023/03/04 19:36:53;;;;;;;4.65;2.35;;;;;;;5.58;100.00;102444.34;10416818;28;20033;-70
2023/03/04 19:41:54;;;;;;;6.22;2.60;;;;;;;5.35;100.00;102465.03;10416330;28;20034;-70
2023/03/04 19:46:54;;;;;;;5.47;2.60;;;;;;;5.18;100.00;102467.41;10419964;28;20068;-71
2023/03/04 19:51:55;;;;;;;9.13;2.50;;;;;;;5.26;100.00;102464.94;10398938;28;20041;-70
2023/03/04 19:56:56;;;;;;;6.63;2.92;;;;;;;5.35;100.00;102461.50;10414451;28;20033;-70
2023/03/04 20:02:00;;;;;;;5.35;2.42;;;;;;;5.41;100.00;102463.69;10415316;28;20036;-71
2023/03/04 20:07:00;;;;;;;9.25;1.77;;;;;;;5.40;100.00;102469.19;10414658;28;20029;-71
2023/03/04 20:12:01;;;;;;;5.40;2.42;;;;;;;5.27;100.00;102466.66;10397612;28;20417;-71
2023/03/04 20:17:02;;;;;;;4.20;2.08;;;;;;;5.21;100.00;102464.47;10415589;28;20053;-70
2023/03/04 20:22:04;;;;;;;9.18;1.65;;;;;;;5.15;100.00;102456.91;10414273;28;20037;-70
2023/03/04 20:27:05;;;;;;;3.70;1.75;;;;;;;5.07;100.00;102457.50;10414565;28;20181;-70
2023/03/04 20:32:05;;;;;;;4.80;2.30;;;;;;;4.89;100.00;102460.69;10414849;28;20108;-70
2023/03/04 20:37:06;;;;;;;9.20;2.60;;;;;;;4.77;100.00;102464.34;10415883;28;20495;-70
2023/03/04 20:42:06;;;;;;;4.85;2.40;;;;;;;4.79;100.00;102462.41;10414451;28;20029;-70
2023/03/04 20:47:07;;;;;;;8.98;2.60;;;;;;;4.81;100.00;102471.16;10413346;28;20033;-70
2023/03/04 20:52:08;;;;;;;6.78;1.67;;;;;;;4.72;100.00;102457.63;10419249;28;20444;-71
2023/03/04 20:57:09;;;;;;;6.78;2.17;;;;;;;4.62;100.00;102452.97;10421136;28;20387;-70
2023/03/04 21:02:12;;;;;;;11.90;2.75;;;;;;;4.66;100.00;102454.47;10422675;28;20037;-70
2023/03/04 21:07:12;;;;;;;12.27;2.00;;;;;;;4.69;100.00;102452.50;10405539;28;20040;-70
2023/03/04 21:12:13;;;;;;;3.90;2.13;;;;;;;4.54;100.00;102449.22;10421679;28;20065;-70
2023/03/04 21:17:13;;;;;;;4.60;2.70;;;;;;;4.34;100.00;102448.06;10420957;28;20037;-71
2023/03/04 21:22:16;;;;;;;11.40;2.58;;;;;;;4.25;100.00;102440.75;10421958;28;20426;-70
2023/03/04 21:27:16;;;;;;;3.13;1.92;;;;;;;4.15;100.00;102448.66;10421920;28;20115;-70
2023/03/04 21:32:23;;;;;;;8.05;3.20;;;;;;;4.13;100.00;102450.56;10422318;28;20035;-70
2023/03/04 21:37:24;;;;;;;10.15;3.03;;;;;;;4.22;100.00;102436.47;10421385;28;20131;-70
2023/03/04 21:42:24;;;;;;;3.95;2.28;;;;;;;4.33;100.00;102438.31;10420488;28;20441;-70
2023/03/04 21:47:25;;;;;;;10.25;3.03;;;;;;;4.38;100.00;102437.00;10420498;28;20034;-70
2023/03/04 21:52:25;;;;;;;11.57;3.83;;;;;;;4.34;100.00;102426.59;10421844;28;20033;-71
2023/03/04 21:57:26;;;;;;;7.80;2.65;;;;;;;4.23;100.00;102419.41;10405479;28;20033;-70
2023/03/04 22:02:26;;;;;;;12.35;3.45;;;;;;;4.11;100.00;102423.88;10418624;28;20067;-70
2023/03/04 22:07:26;;;;;;;2.55;2.28;;;;;;;4.18;100.00;102410.88;10420319;28;20112;-70
2023/03/04 22:12:27;;;;;;;14.88;3.65;;;;;;;4.38;100.00;102414.69;10421093;28;20536;-71
2023/03/04 22:17:27;;;;;;;6.80;2.60;;;;;;;4.49;100.00;102408.47;10419413;28;20046;-71
2023/03/04 22:22:29;;;;;;;11.80;3.72;;;;;;;4.50;100.00;102407.47;10402897;28;20128;-71
2023/03/04 22:27:29;;;;;;;4.32;2.28;;;;;;;4.52;100.00;102386.75;10419494;28;20526;-71
2023/03/04 22:32:30;;;;;;;4.00;2.53;;;;;;;4.51;100.00;102385.91;10419352;28;20057;-72
2023/03/04 22:37:30;;;;;;;10.40;2.40;;;;;;;4.47;100.00;102397.00;10419420;28;20136;-72
2023/03/04 22:42:30;;;;;;;8.55;3.40;;;;;;;4.53;100.00;102405.44;10418918;28;20044;-71
2023/03/04 22:47:31;;;;;;;6.60;2.83;;;;;;;4.61;100.00;102386.03;10417035;28;20040;-72
2023/03/04 22:52:31;;;;;;;16.38;2.65;;;;;;;4.68;100.00;102397.97;10417419;28;20546;-72
2023/03/04 22:57:32;;;;;;;5.25;1.75;;;;;;;4.72;100.00;102387.84;10418822;28;20072;-71
2023/03/04 23:02:32;;;;;;;4.88;2.72;;;;;;;4.73;100.00;102382.38;10419404;28;20065;-71
2023/03/04 23:07:36;;;;;;;9.40;2.75;;;;;;;4.68;100.00;102379.19;10418078;28;20424;-72